Atwater, New York
Current Conditions -  °F | °C
As of 8:56 AM on Thursday 23 Oct 2014 (Local Time) from KITH Reporting Station
Overcast Overcast  
Wind Chill:   Ceiling: 1200
Heat Index:   Visibility: 10mi
Dew Point:   Wind: 13mph
Humidity: 86%   Direction: 340°NNW
Pressure: 29.98"   Gusts: NA
Location:  42.6734°N, 76.6263°W
Report Text: KITH 231256Z 34011KT 10SM OVC012 07/04 A2998 RMK AO2 T00660044 SLP159
Loading
Personal Weather Stations






























Interactive Weather Map
Tropical Storm Tracking
New forecast layout! Learn more

10-Day Weather Forecast

Advertisements
Track Severe Weather on mobile